createdAt,value
2022-12-01T00:00:29.292Z,39.75
2022-12-01T00:03:14.764Z,41.42
2022-12-01T00:06:02.544Z,39.85
2022-12-01T00:09:09.216Z,39.75
2022-12-01T00:11:54.585Z,41.30
2022-12-01T00:14:39.990Z,40.53
2022-12-01T00:17:32.785Z,39.92
2022-12-01T00:20:18.956Z,40.83
2022-12-01T00:23:04.446Z,40.70
2022-12-01T00:25:49.964Z,40.20
2022-12-01T00:28:35.419Z,40.58
2022-12-01T00:31:21.850Z,39.65
2022-12-01T00:34:12.838Z,42.35
2022-12-01T00:36:58.557Z,39.47
2022-12-01T00:39:44.083Z,40.22
2022-12-01T00:42:30.051Z,37.90
2022-12-01T00:45:15.307Z,37.90
2022-12-01T00:48:00.852Z,38.60
2022-12-01T00:50:46.345Z,40.00
2022-12-01T00:53:32.455Z,39.78
2022-12-01T00:56:17.890Z,39.95
2022-12-01T00:59:03.392Z,39.20
2022-12-01T01:01:49.660Z,40.20
2022-12-01T01:04:36.935Z,40.00
2022-12-01T01:07:23.338Z,37.83
2022-12-01T01:10:08.998Z,37.55
2022-12-01T01:12:54.503Z,37.45
2022-12-01T01:15:40.673Z,40.13
2022-12-01T01:18:26.521Z,39.08
2022-12-01T01:21:14.642Z,39.50
2022-12-01T01:24:00.360Z,38.67
2022-12-01T01:26:45.859Z,39.92
2022-12-01T01:29:31.229Z,38.05
2022-12-01T01:32:16.766Z,41.08
2022-12-01T01:35:02.369Z,41.28
2022-12-01T01:37:47.862Z,39.70
2022-12-01T01:40:33.468Z,40.72
2022-12-01T01:43:46.221Z,41.10
2022-12-01T01:46:35.197Z,42.28
2022-12-01T01:49:20.571Z,42.30
2022-12-01T01:52:06.530Z,39.55
2022-12-01T01:54:55.414Z,39.28
2022-12-01T01:57:41.708Z,39.80
2022-12-01T02:00:27.431Z,41.40
2022-12-01T02:03:16.884Z,37.63
2022-12-01T02:06:05.193Z,37.15
2022-12-01T02:08:51.855Z,41.45
2022-12-01T02:12:11.475Z,40.28
2022-12-01T02:15:21.203Z,40.58
2022-12-01T02:18:29.199Z,36.63
2022-12-01T02:21:44.234Z,35.13
2022-12-01T02:24:59.058Z,38.45
2022-12-01T02:27:59.687Z,39.50
2022-12-01T02:30:48.907Z,36.95
2022-12-01T02:33:47.013Z,41.05
2022-12-01T02:36:42.046Z,40.30
2022-12-01T02:39:35.585Z,39.15
2022-12-01T02:42:49.703Z,39.85
2022-12-01T02:45:45.859Z,41.47
2022-12-01T02:48:35.434Z,39.70
2022-12-01T02:51:26.557Z,38.45
2022-12-01T02:54:14.091Z,39.75
2022-12-01T02:56:59.240Z,38.50
2022-12-01T02:59:49.569Z,41.25
2022-12-01T03:02:59.929Z,38.80
2022-12-01T03:05:55.945Z,39.40
2022-12-01T03:08:57.688Z,39.85
2022-12-01T03:11:56.910Z,40.25
2022-12-01T03:14:51.191Z,37.08
2022-12-01T03:18:06.714Z,38.17
2022-12-01T03:20:51.869Z,38.58
2022-12-01T03:23:41.398Z,39.10
2022-12-01T03:26:31.093Z,40.28
2022-12-01T03:29:21.154Z,39.70
2022-12-01T03:32:20.483Z,36.95
2022-12-01T03:35:11.070Z,39.63
2022-12-01T03:38:05.755Z,39.97
2022-12-01T03:40:55.821Z,39.88
2022-12-01T03:43:48.455Z,37.78
2022-12-01T03:46:51.851Z,37.05
2022-12-01T03:49:39.800Z,36.80
2022-12-01T03:52:57.852Z,38.45
2022-12-01T03:55:45.075Z,38.50
2022-12-01T03:58:44.050Z,36.03
2022-12-01T04:01:34.192Z,37.92
2022-12-01T04:04:19.615Z,37.10
2022-12-01T04:07:05.358Z,35.42
2022-12-01T04:09:50.799Z,36.15
2022-12-01T04:12:36.379Z,33.78
2022-12-01T04:15:21.906Z,36.55
2022-12-01T04:18:07.391Z,33.67
2022-12-01T04:20:52.844Z,35.25
2022-12-01T04:23:56.717Z,32.67
2022-12-01T04:26:43.325Z,35.33
2022-12-01T04:29:28.775Z,37.75
2022-12-01T04:32:14.549Z,37.88
2022-12-01T04:34:59.662Z,37.65
2022-12-01T04:37:45.155Z,39.10
2022-12-01T04:40:30.561Z,39.25
2022-12-01T04:43:15.905Z,39.90
2022-12-01T04:46:01.552Z,38.22
2022-12-01T04:48:47.010Z,38.72
2022-12-01T04:51:32.585Z,40.42
2022-12-01T04:54:18.534Z,39.60
2022-12-01T04:57:03.934Z,41.63
2022-12-01T04:59:49.774Z,38.53
2022-12-01T05:02:35.342Z,38.08
2022-12-01T05:05:20.857Z,39.20
2022-12-01T05:08:06.335Z,38.63
2022-12-01T05:10:55.702Z,41.80
2022-12-01T05:13:43.552Z,38.83
2022-12-01T05:16:34.145Z,39.58
2022-12-01T05:19:38.463Z,37.83
2022-12-01T05:22:49.423Z,37.92
2022-12-01T05:25:30.311Z,39.70
2022-12-01T05:28:15.770Z,38.15
2022-12-01T05:31:01.449Z,40.30
2022-12-01T05:33:47.033Z,39.95
2022-12-01T05:36:32.878Z,41.38
2022-12-01T05:39:18.268Z,39.67
2022-12-01T05:42:03.843Z,39.17
2022-12-01T05:44:49.493Z,37.00
2022-12-01T05:47:34.536Z,41.20
2022-12-01T05:50:20.243Z,40.75
2022-12-01T05:53:06.447Z,37.22
2022-12-01T05:55:55.209Z,38.45
2022-12-01T05:58:40.649Z,36.80
2022-12-01T06:01:26.155Z,37.97
2022-12-01T06:04:11.776Z,39.15
2022-12-01T06:06:57.300Z,37.70
2022-12-01T06:09:42.580Z,36.28
2022-12-01T06:12:28.234Z,38.25
2022-12-01T06:15:14.027Z,35.75
2022-12-01T06:17:59.831Z,37.45
2022-12-01T06:20:45.522Z,38.17
2022-12-01T06:23:31.018Z,36.38
2022-12-01T06:26:16.750Z,35.30
2022-12-01T06:29:01.986Z,35.28
2022-12-01T06:31:47.644Z,34.22
2022-12-01T06:34:32.820Z,37.25
2022-12-01T06:37:18.233Z,38.20
2022-12-01T06:40:04.502Z,38.78
2022-12-01T06:42:49.563Z,41.38
2022-12-01T06:45:35.988Z,38.22
2022-12-01T06:48:22.196Z,39.85
2022-12-01T06:51:07.397Z,41.30
2022-12-01T06:53:54.867Z,40.35
2022-12-01T06:56:42.794Z,37.85
2022-12-01T06:59:28.581Z,39.10
2022-12-01T07:02:14.080Z,38.35
2022-12-01T07:04:59.774Z,37.75
2022-12-01T07:07:45.222Z,38.70
2022-12-01T07:10:30.717Z,38.95
2022-12-01T07:13:16.058Z,37.05
2022-12-01T07:16:03.338Z,37.90
2022-12-01T07:18:48.679Z,38.95
2022-12-01T07:21:34.226Z,38.00
2022-12-01T07:24:19.859Z,39.20
2022-12-01T07:27:05.314Z,39.33
2022-12-01T07:29:51.066Z,38.10
2022-12-01T07:32:37.058Z,36.90
2022-12-01T07:35:22.563Z,37.80
2022-12-01T07:38:08.057Z,39.55
2022-12-01T07:40:53.416Z,38.08
2022-12-01T07:43:39.804Z,40.13
2022-12-01T07:46:26.684Z,37.78
2022-12-01T07:49:14.820Z,39.47
2022-12-01T07:52:00.199Z,37.97
2022-12-01T07:54:45.643Z,37.72
2022-12-01T07:57:30.954Z,37.22
2022-12-01T08:00:16.689Z,38.05
2022-12-01T08:03:02.039Z,37.17
2022-12-01T08:05:57.256Z,38.70
2022-12-01T08:08:42.425Z,38.08
2022-12-01T08:11:31.604Z,37.35
2022-12-01T08:14:16.605Z,36.10
2022-12-01T08:17:02.215Z,36.40
2022-12-01T08:19:48.159Z,36.63
2022-12-01T08:22:33.944Z,35.97
2022-12-01T08:25:19.250Z,36.03
2022-12-01T08:28:04.736Z,34.67
2022-12-01T08:30:50.022Z,37.10
2022-12-01T08:33:38.692Z,36.55
2022-12-01T08:36:24.980Z,32.47
2022-12-01T08:39:10.891Z,33.75
2022-12-01T08:41:56.537Z,35.45
2022-12-01T08:44:41.934Z,33.55
2022-12-01T08:47:28.799Z,33.15
2022-12-01T08:50:14.336Z,35.90
2022-12-01T08:52:59.770Z,36.55
2022-12-01T08:55:45.242Z,34.88
2022-12-01T08:58:30.484Z,35.28
2022-12-01T09:01:17.171Z,33.90
2022-12-01T09:04:06.310Z,34.83
2022-12-01T09:06:53.519Z,33.78
2022-12-01T09:09:39.087Z,35.80
2022-12-01T09:12:24.538Z,33.22
2022-12-01T09:15:10.438Z,35.08
2022-12-01T09:17:56.952Z,34.22
2022-12-01T09:20:42.078Z,36.35
2022-12-01T09:23:27.869Z,35.25
2022-12-01T09:26:18.045Z,35.88
2022-12-01T09:29:06.586Z,35.42
2022-12-01T09:31:56.236Z,35.65
2022-12-01T09:34:41.588Z,37.38
2022-12-01T09:37:26.837Z,36.88
2022-12-01T09:40:15.088Z,36.92
2022-12-01T09:43:03.199Z,36.33
2022-12-01T09:46:02.285Z,37.40
2022-12-01T09:48:49.658Z,38.05
2022-12-01T09:51:36.824Z,37.47
2022-12-01T09:54:22.225Z,39.50
2022-12-01T09:57:16.773Z,36.17
2022-12-01T10:00:10.716Z,36.95
2022-12-01T10:03:23.655Z,36.33
2022-12-01T10:06:32.040Z,37.90
2022-12-01T10:09:21.138Z,39.70
2022-12-01T10:12:19.359Z,39.80
2022-12-01T10:15:32.025Z,40.03
2022-12-01T10:18:47.038Z,39.38
2022-12-01T10:21:44.914Z,37.85
2022-12-01T10:24:36.295Z,36.92
2022-12-01T10:27:29.779Z,37.22
2022-12-01T10:30:18.542Z,36.95
2022-12-01T10:33:30.399Z,35.03
2022-12-01T10:36:15.807Z,35.85
2022-12-01T10:39:04.605Z,36.80
2022-12-01T10:41:50.038Z,34.78
2022-12-01T10:44:35.767Z,32.17
2022-12-01T10:47:24.007Z,33.85
2022-12-01T10:50:25.431Z,33.75
2022-12-01T10:53:23.249Z,32.00
2022-12-01T10:56:12.249Z,32.60
2022-12-01T10:59:02.311Z,31.60
2022-12-01T11:01:48.653Z,31.15
2022-12-01T11:04:45.025Z,30.58
2022-12-01T11:07:35.608Z,32.45
2022-12-01T11:10:28.740Z,32.35
2022-12-01T11:13:20.937Z,30.02
2022-12-01T11:16:07.267Z,28.58
2022-12-01T11:19:08.288Z,26.52
2022-12-01T11:21:56.661Z,26.13
2022-12-01T11:24:53.177Z,23.30
2022-12-01T11:27:47.963Z,23.58
2022-12-01T11:30:34.008Z,22.52
2022-12-01T11:33:19.573Z,20.92
2022-12-01T11:36:05.587Z,19.02
2022-12-01T11:38:56.152Z,18.83
2022-12-01T11:41:42.599Z,18.98
2022-12-01T11:44:50.352Z,17.85
2022-12-01T11:47:35.254Z,21.63
2022-12-01T11:50:26.617Z,22.50
2022-12-01T11:53:30.060Z,21.92
2022-12-01T11:56:21.008Z,20.88
2022-12-01T11:59:12.795Z,20.98
2022-12-01T12:02:18.357Z,19.92
2022-12-01T12:05:24.947Z,19.98
2022-12-01T12:08:38.176Z,21.13
2022-12-01T12:11:41.531Z,22.05
2022-12-01T12:14:52.662Z,21.33
2022-12-01T12:18:17.783Z,20.15
2022-12-01T12:21:15.009Z,20.85
2022-12-01T12:24:38.237Z,18.77
2022-12-01T12:27:37.838Z,19.25
2022-12-01T12:30:30.519Z,17.27
2022-12-01T12:33:43.136Z,16.88
2022-12-01T12:39:49.486Z,16.90
2022-12-01T12:42:52.620Z,15.85
2022-12-01T12:46:08.738Z,14.40
2022-12-01T12:49:21.324Z,14.85
2022-12-01T12:52:13.100Z,15.60
2022-12-01T12:55:04.526Z,15.82
2022-12-01T12:57:55.380Z,15.73
2022-12-01T13:00:48.359Z,16.35
2022-12-01T13:03:47.563Z,15.63
2022-12-01T13:06:50.680Z,16.20
2022-12-01T13:12:33.415Z,16.02
2022-12-01T13:15:21.299Z,16.58
2022-12-01T13:18:19.450Z,16.08
2022-12-01T13:21:05.600Z,15.57
2022-12-01T13:23:52.282Z,13.98
2022-12-01T13:26:39.541Z,14.98
2022-12-01T13:29:26.904Z,15.18
2022-12-01T13:32:38.085Z,15.82
2022-12-01T13:35:29.147Z,14.77
2022-12-01T13:38:33.965Z,13.82
2022-12-01T13:41:19.308Z,13.25
2022-12-01T13:44:09.012Z,14.27
2022-12-01T13:47:12.206Z,14.52
2022-12-01T13:49:58.404Z,14.18
2022-12-01T13:52:50.701Z,13.70
2022-12-01T13:55:54.390Z,14.07
2022-12-01T13:58:50.138Z,14.32
2022-12-01T14:01:46.334Z,13.75
2022-12-01T14:04:32.669Z,13.13
2022-12-01T14:07:37.165Z,14.43
2022-12-01T14:10:31.175Z,13.70
2022-12-01T14:13:19.960Z,13.57
2022-12-01T14:16:05.763Z,13.88
2022-12-01T14:18:56.969Z,12.80
2022-12-01T14:21:46.676Z,11.95
2022-12-01T14:24:36.005Z,13.55
2022-12-01T14:27:39.418Z,13.00
2022-12-01T14:30:45.030Z,14.38
2022-12-01T14:33:39.542Z,13.20
2022-12-01T14:36:37.022Z,13.95
2022-12-01T14:39:37.078Z,14.32
2022-12-01T14:42:54.287Z,13.00
2022-12-01T14:45:47.448Z,12.50
2022-12-01T14:48:39.125Z,12.27
2022-12-01T14:51:34.951Z,12.77
2022-12-01T14:54:44.863Z,11.75
2022-12-01T14:57:39.662Z,12.20
2022-12-01T15:00:25.423Z,12.05
2022-12-01T15:03:14.070Z,13.35
2022-12-01T15:05:59.388Z,12.65
2022-12-01T15:08:58.252Z,12.55
2022-12-01T15:12:00.179Z,12.77
2022-12-01T15:14:49.640Z,13.65
2022-12-01T15:17:37.105Z,12.77
2022-12-01T15:20:37.627Z,12.82
2022-12-01T15:23:23.052Z,13.55
2022-12-01T15:26:18.884Z,14.43
2022-12-01T15:29:16.939Z,13.27
2022-12-01T15:32:05.765Z,14.38
2022-12-01T15:34:54.226Z,13.43
2022-12-01T15:37:44.516Z,15.88
2022-12-01T15:43:41.154Z,15.95
2022-12-01T15:46:32.684Z,15.68
2022-12-01T15:49:19.321Z,15.68
2022-12-01T15:52:11.393Z,15.02
2022-12-01T15:55:01.997Z,15.32
2022-12-01T15:57:47.590Z,13.77
2022-12-01T16:00:32.878Z,15.10
2022-12-01T16:03:18.646Z,16.00
2022-12-01T16:06:04.203Z,14.82
2022-12-01T16:08:56.894Z,17.00
2022-12-01T16:15:02.826Z,16.70
2022-12-01T16:17:53.775Z,17.05
2022-12-01T16:20:42.216Z,16.42
2022-12-01T16:23:27.447Z,16.98
2022-12-01T16:26:14.048Z,17.70
2022-12-01T16:28:59.790Z,18.52
2022-12-01T16:32:12.645Z,17.33
2022-12-01T16:34:52.429Z,17.88
2022-12-01T16:37:37.709Z,18.73
2022-12-01T16:40:23.475Z,18.17
2022-12-01T16:43:18.295Z,18.05
2022-12-01T16:46:09.968Z,18.65
2022-12-01T16:48:55.583Z,18.35
2022-12-01T16:51:55.280Z,18.98
2022-12-01T16:54:42.200Z,19.30
2022-12-01T16:57:27.487Z,18.75
2022-12-01T17:00:13.634Z,18.65
2022-12-01T17:02:59.103Z,18.70
2022-12-01T17:05:44.703Z,18.40
2022-12-01T17:08:30.028Z,17.65
2022-12-01T17:11:15.435Z,18.08
2022-12-01T17:14:00.670Z,17.85
2022-12-01T17:16:46.132Z,17.55
2022-12-01T17:19:31.451Z,17.83
2022-12-01T17:22:17.053Z,18.17
2022-12-01T17:25:02.966Z,16.35
2022-12-01T17:27:48.413Z,15.60
2022-12-01T17:30:34.016Z,16.90
2022-12-01T17:33:19.382Z,16.40
2022-12-01T17:36:08.210Z,16.27
2022-12-01T17:38:54.237Z,15.27
2022-12-01T17:41:42.039Z,15.50
2022-12-01T17:44:27.258Z,15.25
2022-12-01T17:47:13.136Z,14.38
2022-12-01T17:49:58.592Z,15.43
2022-12-01T17:52:43.990Z,14.70
2022-12-01T17:55:29.295Z,13.85
2022-12-01T17:58:14.529Z,13.23
2022-12-01T18:01:00.154Z,14.70
2022-12-01T18:03:46.097Z,14.23
2022-12-01T18:06:31.480Z,14.30
2022-12-01T18:09:17.185Z,13.30
2022-12-01T18:12:02.813Z,13.07
2022-12-01T18:14:48.877Z,14.00
2022-12-01T18:17:34.420Z,13.68
2022-12-01T18:20:20.089Z,13.30
2022-12-01T18:23:05.426Z,15.13
2022-12-01T18:25:50.990Z,13.90
2022-12-01T18:28:36.919Z,14.32
2022-12-01T18:31:22.496Z,14.75
2022-12-01T18:34:10.775Z,15.13
2022-12-01T18:36:56.858Z,14.88
2022-12-01T18:39:41.799Z,15.70
2022-12-01T18:42:27.316Z,15.50
2022-12-01T18:45:16.588Z,15.02
2022-12-01T18:48:06.463Z,15.13
2022-12-01T18:50:57.893Z,14.40
2022-12-01T18:53:45.420Z,15.02
2022-12-01T18:56:31.487Z,14.05
2022-12-01T18:59:18.335Z,13.35
2022-12-01T19:02:04.320Z,13.57
2022-12-01T19:04:50.402Z,14.13
2022-12-01T19:07:36.389Z,13.60
2022-12-01T19:10:21.885Z,13.65
2022-12-01T19:13:07.251Z,13.40
2022-12-01T19:15:54.188Z,13.93
2022-12-01T19:18:40.559Z,14.23
2022-12-01T19:21:25.926Z,13.73
2022-12-01T19:24:11.337Z,15.00
2022-12-01T19:26:56.603Z,15.27
2022-12-01T19:29:43.089Z,14.90
2022-12-01T19:32:31.058Z,14.57
2022-12-01T19:35:16.983Z,15.52
2022-12-01T19:38:02.617Z,15.50
2022-12-01T19:40:48.015Z,15.65
2022-12-01T19:43:34.429Z,14.43
2022-12-01T19:46:23.121Z,14.88
2022-12-01T19:49:10.552Z,14.98
2022-12-01T19:51:55.652Z,14.48
2022-12-01T19:54:41.041Z,15.80
2022-12-01T19:57:26.578Z,16.75
2022-12-01T20:00:12.533Z,18.52
2022-12-01T20:03:00.133Z,19.08
2022-12-01T20:05:45.315Z,19.50
2022-12-01T20:08:35.068Z,18.85
2022-12-01T20:11:21.040Z,21.25
2022-12-01T20:14:07.757Z,22.05
2022-12-01T20:16:55.510Z,21.63
2022-12-01T20:19:41.085Z,21.52
2022-12-01T20:22:26.378Z,23.92
2022-12-01T20:25:11.766Z,24.23
2022-12-01T20:27:57.060Z,24.15
2022-12-01T20:30:42.551Z,22.90
2022-12-01T20:33:28.104Z,22.67
2022-12-01T20:36:14.504Z,22.00
2022-12-01T20:38:59.703Z,22.10
2022-12-01T20:41:45.986Z,21.95
2022-12-01T20:44:31.154Z,26.02
2022-12-01T20:47:18.512Z,24.33
2022-12-01T20:50:05.558Z,23.17
2022-12-01T20:52:50.784Z,24.02
2022-12-01T20:55:37.297Z,24.27
2022-12-01T20:58:22.635Z,25.60
2022-12-01T21:01:13.715Z,24.80
2022-12-01T21:03:59.413Z,25.77
2022-12-01T21:06:44.952Z,26.08
2022-12-01T21:09:30.092Z,27.20
2022-12-01T21:12:36.001Z,27.02
2022-12-01T21:15:28.944Z,26.85
2022-12-01T21:21:10.216Z,27.05
2022-12-01T21:24:20.545Z,29.13
2022-12-01T21:27:16.326Z,27.83
2022-12-01T21:30:01.402Z,28.48
2022-12-01T21:32:47.928Z,28.48
2022-12-01T21:35:33.082Z,30.00
2022-12-01T21:38:21.960Z,30.27
2022-12-01T21:41:28.771Z,30.85
2022-12-01T21:44:17.099Z,30.05
2022-12-01T21:47:17.495Z,30.40
2022-12-01T21:50:13.967Z,32.85
2022-12-01T21:52:59.299Z,29.60
2022-12-01T21:55:46.980Z,31.25
2022-12-01T21:58:35.945Z,33.17
2022-12-01T22:01:32.061Z,31.80
2022-12-01T22:04:29.197Z,33.53
2022-12-01T22:07:15.178Z,32.75
2022-12-01T22:10:06.217Z,36.75
2022-12-01T22:12:54.148Z,38.47
2022-12-01T22:15:41.116Z,38.22
2022-12-01T22:18:37.983Z,38.22
2022-12-01T22:21:23.454Z,37.67
2022-12-01T22:24:08.516Z,36.00
2022-12-01T22:27:11.736Z,38.85
2022-12-01T22:30:00.264Z,36.88
2022-12-01T22:32:53.093Z,40.40
2022-12-01T22:35:52.218Z,38.83
2022-12-01T22:38:39.608Z,37.15
2022-12-01T22:41:26.564Z,35.35
2022-12-01T22:44:12.864Z,35.53
2022-12-01T22:47:02.199Z,35.53
2022-12-01T22:49:47.417Z,33.88
2022-12-01T22:52:32.724Z,36.88
2022-12-01T22:55:19.894Z,34.42
2022-12-01T22:58:37.388Z,35.22
2022-12-01T23:01:27.750Z,36.47
2022-12-01T23:04:32.459Z,38.60
2022-12-01T23:07:41.230Z,42.17
2022-12-01T23:10:33.757Z,42.85
2022-12-01T23:13:22.256Z,42.78
2022-12-01T23:16:10.386Z,45.08
2022-12-01T23:18:55.957Z,42.95
2022-12-01T23:21:41.357Z,43.80
2022-12-01T23:24:29.736Z,43.50
2022-12-01T23:27:18.999Z,43.28
2022-12-01T23:30:05.263Z,43.05
2022-12-01T23:33:19.546Z,43.35
2022-12-01T23:36:20.291Z,44.08
2022-12-01T23:39:11.914Z,46.67
2022-12-01T23:41:57.228Z,44.92
2022-12-01T23:44:47.062Z,44.80
2022-12-01T23:47:32.102Z,44.78
2022-12-01T23:50:22.249Z,46.80
2022-12-01T23:53:23.426Z,45.80
2022-12-01T23:56:14.142Z,44.63
2022-12-01T23:59:01.030Z,44.55
